sensor_id;sensor_type;location;lat;lon;timestamp;pressure;altitude;pressure_sealevel;temperature;humidity
63819;BME280;49970;54.976;73.248;2022-07-01T00:01:44;99323.13;;;11.80;74.97
63819;BME280;49970;54.976;73.248;2022-07-01T00:04:11;99317.59;;;11.83;74.44
63819;BME280;49970;54.976;73.248;2022-07-01T00:06:38;99314.19;;;11.81;74.88
63819;BME280;49970;54.976;73.248;2022-07-01T00:09:04;99316.31;;;11.87;74.63
63819;BME280;49970;54.976;73.248;2022-07-01T00:11:31;99317.28;;;11.86;74.43
63819;BME280;49970;54.976;73.248;2022-07-01T00:13:58;99323.41;;;11.96;74.41
63819;BME280;49970;54.976;73.248;2022-07-01T00:16:34;99316.84;;;12.01;74.38
63819;BME280;49970;54.976;73.248;2022-07-01T00:19:00;99319.91;;;12.06;74.36
63819;BME280;49970;54.976;73.248;2022-07-01T00:21:27;99337.06;;;12.11;74.11
63819;BME280;49970;54.976;73.248;2022-07-01T00:23:53;99329.81;;;12.13;74.42
63819;BME280;49970;54.976;73.248;2022-07-01T00:26:19;99332.31;;;12.15;74.27
63819;BME280;49970;54.976;73.248;2022-07-01T00:28:45;99333.88;;;12.17;74.14
63819;BME280;49970;54.976;73.248;2022-07-01T00:31:12;99336.63;;;12.16;74.18
63819;BME280;49970;54.976;73.248;2022-07-01T00:33:38;99341.13;;;12.25;74.04
63819;BME280;49970;54.976;73.248;2022-07-01T00:36:15;99323.50;;;12.24;74.08
63819;BME280;49970;54.976;73.248;2022-07-01T00:38:41;99343.47;;;12.28;73.80
63819;BME280;49970;54.976;73.248;2022-07-01T00:41:07;99336.47;;;12.27;74.02
63819;BME280;49970;54.976;73.248;2022-07-01T00:43:37;99330.78;;;12.22;74.04
63819;BME280;49970;54.976;73.248;2022-07-01T00:46:04;99346.44;;;12.25;74.45
63819;BME280;49970;54.976;73.248;2022-07-01T00:48:34;99352.41;;;12.27;74.33
63819;BME280;49970;54.976;73.248;2022-07-01T00:51:03;99338.31;;;12.27;73.96
63819;BME280;49970;54.976;73.248;2022-07-01T00:53:29;99344.16;;;12.30;74.09
63819;BME280;49970;54.976;73.248;2022-07-01T00:55:56;99348.50;;;12.31;74.50
63819;BME280;49970;54.976;73.248;2022-07-01T00:58:33;99347.81;;;12.29;74.40
63819;BME280;49970;54.976;73.248;2022-07-01T01:00:59;99347.38;;;12.24;74.62
63819;BME280;49970;54.976;73.248;2022-07-01T01:03:26;99351.19;;;12.21;74.86
63819;BME280;49970;54.976;73.248;2022-07-01T01:05:53;99341.41;;;12.22;75.07
63819;BME280;49970;54.976;73.248;2022-07-01T01:08:23;99350.03;;;12.24;75.12
63819;BME280;49970;54.976;73.248;2022-07-01T01:10:55;99356.72;;;12.28;75.05
63819;BME280;49970;54.976;73.248;2022-07-01T01:13:21;99353.81;;;12.31;74.83
63819;BME280;49970;54.976;73.248;2022-07-01T01:15:49;99369.88;;;12.30;74.69
63819;BME280;49970;54.976;73.248;2022-07-01T01:18:15;99379.94;;;12.36;75.04
63819;BME280;49970;54.976;73.248;2022-07-01T01:20:41;99371.84;;;12.37;75.16
63819;BME280;49970;54.976;73.248;2022-07-01T01:23:17;99369.28;;;12.45;74.93
63819;BME280;49970;54.976;73.248;2022-07-01T01:25:44;99363.66;;;12.58;74.54
63819;BME280;49970;54.976;73.248;2022-07-01T01:28:12;99362.25;;;12.64;74.59
63819;BME280;49970;54.976;73.248;2022-07-01T01:30:39;99359.97;;;12.69;74.47
63819;BME280;49970;54.976;73.248;2022-07-01T01:33:05;99353.09;;;12.76;74.46
63819;BME280;49970;54.976;73.248;2022-07-01T01:35:53;99352.38;;;12.84;74.18
63819;BME280;49970;54.976;73.248;2022-07-01T01:39:44;99352.38;;;12.84;74.06
63819;BME280;49970;54.976;73.248;2022-07-01T01:43:35;99366.88;;;12.89;73.87
63819;BME280;49970;54.976;73.248;2022-07-01T01:47:26;99350.06;;;12.71;73.69
63819;BME280;49970;54.976;73.248;2022-07-01T01:51:42;99383.16;;;12.77;74.30
63819;BME280;49970;54.976;73.248;2022-07-01T01:55:15;99369.00;;;12.86;74.53
63819;BME280;49970;54.976;73.248;2022-07-01T01:57:41;99361.69;;;12.98;74.13
63819;BME280;49970;54.976;73.248;2022-07-01T02:00:28;99385.41;;;13.09;73.92
63819;BME280;49970;54.976;73.248;2022-07-01T02:04:18;99384.88;;;13.05;73.97
63819;BME280;49970;54.976;73.248;2022-07-01T02:15:28;99388.84;;;13.19;74.36
63819;BME280;49970;54.976;73.248;2022-07-01T02:17:55;99388.84;;;13.19;74.09
63819;BME280;49970;54.976;73.248;2022-07-01T02:20:22;99386.78;;;13.13;74.60
63819;BME280;49970;54.976;73.248;2022-07-01T02:22:48;99393.06;;;13.12;74.71
63819;BME280;49970;54.976;73.248;2022-07-01T02:25:15;99395.06;;;13.10;75.08
63819;BME280;49970;54.976;73.248;2022-07-01T02:27:41;99396.44;;;13.14;74.79
63819;BME280;49970;54.976;73.248;2022-07-01T02:30:08;99397.94;;;13.16;75.18
63819;BME280;49970;54.976;73.248;2022-07-01T02:32:34;99399.31;;;13.20;75.22
63819;BME280;49970;54.976;73.248;2022-07-01T02:35:01;99399.59;;;13.27;75.19
63819;BME280;49970;54.976;73.248;2022-07-01T02:37:27;99406.41;;;13.39;75.26
63819;BME280;49970;54.976;73.248;2022-07-01T02:39:54;99407.78;;;13.43;74.85
63819;BME280;49970;54.976;73.248;2022-07-01T02:42:25;99405.47;;;13.31;75.17
63819;BME280;49970;54.976;73.248;2022-07-01T02:45:02;99413.84;;;13.36;75.75
63819;BME280;49970;54.976;73.248;2022-07-01T02:47:36;99411.97;;;13.46;75.97
63819;BME280;49970;54.976;73.248;2022-07-01T02:50:07;99405.13;;;13.43;75.12
63819;BME280;49970;54.976;73.248;2022-07-01T02:52:34;99411.66;;;13.49;74.82
63819;BME280;49970;54.976;73.248;2022-07-01T02:55:05;99416.59;;;13.44;75.01
63819;BME280;49970;54.976;73.248;2022-07-01T02:57:32;99420.81;;;13.37;75.39
63819;BME280;49970;54.976;73.248;2022-07-01T02:59:59;99413.44;;;13.31;75.54
63819;BME280;49970;54.976;73.248;2022-07-01T03:02:25;99419.75;;;13.30;75.75
63819;BME280;49970;54.976;73.248;2022-07-01T03:04:53;99408.13;;;13.31;76.14
63819;BME280;49970;54.976;73.248;2022-07-01T03:07:20;99406.47;;;13.30;76.18
63819;BME280;49970;54.976;73.248;2022-07-01T03:09:47;99423.81;;;13.34;75.91
63819;BME280;49970;54.976;73.248;2022-07-01T03:12:13;99412.50;;;13.22;76.29
63819;BME280;49970;54.976;73.248;2022-07-01T03:15:01;99428.72;;;13.19;76.37
63819;BME280;49970;54.976;73.248;2022-07-01T03:17:30;99435.88;;;13.18;76.96
63819;BME280;49970;54.976;73.248;2022-07-01T03:19:57;99433.94;;;13.11;77.20
63819;BME280;49970;54.976;73.248;2022-07-01T03:22:27;99424.19;;;13.02;77.13
63819;BME280;49970;54.976;73.248;2022-07-01T03:24:54;99425.03;;;13.02;77.27
63819;BME280;49970;54.976;73.248;2022-07-01T03:27:21;99438.75;;;12.98;77.16
63819;BME280;49970;54.976;73.248;2022-07-01T03:29:48;99435.72;;;12.92;77.80
63819;BME280;49970;54.976;73.248;2022-07-01T03:32:15;99433.88;;;12.93;78.43
63819;BME280;49970;54.976;73.248;2022-07-01T03:34:43;99443.41;;;12.86;80.50
63819;BME280;49970;54.976;73.248;2022-07-01T03:37:10;99452.25;;;12.77;81.88
63819;BME280;49970;54.976;73.248;2022-07-01T03:39:37;99452.84;;;12.61;82.78
63819;BME280;49970;54.976;73.248;2022-07-01T03:42:05;99450.47;;;12.58;83.41
63819;BME280;49970;54.976;73.248;2022-07-01T03:44:33;99458.75;;;12.55;83.72
63819;BME280;49970;54.976;73.248;2022-07-01T03:47:00;99444.50;;;12.46;83.66
63819;BME280;49970;54.976;73.248;2022-07-01T03:49:26;99460.69;;;12.53;84.27
63819;BME280;49970;54.976;73.248;2022-07-01T03:51:57;99458.88;;;12.53;83.83
63819;BME280;49970;54.976;73.248;2022-07-01T03:54:24;99459.31;;;12.58;83.62
63819;BME280;49970;54.976;73.248;2022-07-01T03:57:00;99458.72;;;12.64;83.58
63819;BME280;49970;54.976;73.248;2022-07-01T03:59:27;99465.81;;;12.74;83.67
63819;BME280;49970;54.976;73.248;2022-07-01T04:01:54;99453.38;;;12.74;83.34
63819;BME280;49970;54.976;73.248;2022-07-01T04:04:22;99451.97;;;12.80;83.78
63819;BME280;49970;54.976;73.248;2022-07-01T04:06:48;99454.03;;;12.86;83.29
63819;BME280;49970;54.976;73.248;2022-07-01T04:09:17;99461.28;;;12.93;83.71
63819;BME280;49970;54.976;73.248;2022-07-01T04:11:44;99460.75;;;12.90;83.32
63819;BME280;49970;54.976;73.248;2022-07-01T04:14:12;99461.72;;;12.89;83.17
63819;BME280;49970;54.976;73.248;2022-07-01T04:16:38;99470.38;;;12.91;83.12
63819;BME280;49970;54.976;73.248;2022-07-01T04:19:05;99460.50;;;12.83;83.39
63819;BME280;49970;54.976;73.248;2022-07-01T04:21:31;99465.66;;;12.85;84.14
63819;BME280;49970;54.976;73.248;2022-07-01T04:24:16;99464.94;;;12.83;83.85
63819;BME280;49970;54.976;73.248;2022-07-01T04:26:43;99479.09;;;12.83;83.63
63819;BME280;49970;54.976;73.248;2022-07-01T04:29:09;99478.13;;;12.84;83.58
63819;BME280;49970;54.976;73.248;2022-07-01T04:31:37;99484.94;;;12.87;83.74
63819;BME280;49970;54.976;73.248;2022-07-01T04:34:04;99485.66;;;12.89;83.48
63819;BME280;49970;54.976;73.248;2022-07-01T04:36:31;99473.78;;;12.83;82.74
63819;BME280;49970;54.976;73.248;2022-07-01T04:38:57;99486.34;;;12.91;82.80
63819;BME280;49970;54.976;73.248;2022-07-01T04:41:24;99483.41;;;12.94;82.43
63819;BME280;49970;54.976;73.248;2022-07-01T04:44:08;99480.47;;;12.97;81.72
63819;BME280;49970;54.976;73.248;2022-07-01T04:46:35;99477.78;;;12.97;81.36
63819;BME280;49970;54.976;73.248;2022-07-01T04:49:12;99483.94;;;12.98;81.26
63819;BME280;49970;54.976;73.248;2022-07-01T04:51:38;99487.16;;;13.01;80.85
63819;BME280;49970;54.976;73.248;2022-07-01T04:54:05;99485.63;;;12.99;80.90
63819;BME280;49970;54.976;73.248;2022-07-01T04:56:33;99478.47;;;12.99;81.78
63819;BME280;49970;54.976;73.248;2022-07-01T04:59:00;99482.97;;;12.99;81.76
63819;BME280;49970;54.976;73.248;2022-07-01T05:01:27;99484.22;;;13.04;81.80
63819;BME280;49970;54.976;73.248;2022-07-01T05:03:56;99486.88;;;13.04;81.86
63819;BME280;49970;54.976;73.248;2022-07-01T05:06:23;99490.88;;;13.08;81.28
63819;BME280;49970;54.976;73.248;2022-07-01T05:08:50;99496.09;;;13.10;81.24
63819;BME280;49970;54.976;73.248;2022-07-01T05:11:16;99487.28;;;13.09;81.49
63819;BME280;49970;54.976;73.248;2022-07-01T05:13:43;99497.47;;;13.14;82.07
63819;BME280;49970;54.976;73.248;2022-07-01T05:16:09;99486.13;;;13.12;81.30
63819;BME280;49970;54.976;73.248;2022-07-01T05:18:39;99483.34;;;13.13;81.26
63819;BME280;49970;54.976;73.248;2022-07-01T05:21:34;99505.56;;;13.22;81.38
63819;BME280;49970;54.976;73.248;2022-07-01T05:24:19;99498.69;;;13.29;81.49
63819;BME280;49970;54.976;73.248;2022-07-01T05:26:45;99493.25;;;13.31;80.96
63819;BME280;49970;54.976;73.248;2022-07-01T05:29:12;99504.44;;;13.34;80.24
63819;BME280;49970;54.976;73.248;2022-07-01T05:31:38;99501.06;;;13.32;79.72
63819;BME280;49970;54.976;73.248;2022-07-01T05:34:04;99499.78;;;13.36;79.66
63819;BME280;49970;54.976;73.248;2022-07-01T05:36:33;99504.44;;;13.34;79.66
63819;BME280;49970;54.976;73.248;2022-07-01T05:39:00;99488.50;;;13.25;79.61
63819;BME280;49970;54.976;73.248;2022-07-01T05:41:27;99498.56;;;13.21;79.67
63819;BME280;49970;54.976;73.248;2022-07-01T05:43:53;99517.31;;;13.29;79.55
63819;BME280;49970;54.976;73.248;2022-07-01T05:46:20;99517.19;;;13.31;79.35
63819;BME280;49970;54.976;73.248;2022-07-01T05:48:48;99514.63;;;13.29;79.29
63819;BME280;49970;54.976;73.248;2022-07-01T05:51:14;99524.16;;;13.32;79.49
63819;BME280;49970;54.976;73.248;2022-07-01T05:53:46;99506.44;;;13.23;79.03
63819;BME280;49970;54.976;73.248;2022-07-01T06:00:13;99521.69;;;13.11;79.80
63819;BME280;49970;54.976;73.248;2022-07-01T06:04:04;99528.81;;;13.10;80.09
63819;BME280;49970;54.976;73.248;2022-07-01T06:07:37;99530.22;;;13.14;79.82
63819;BME280;49970;54.976;73.248;2022-07-01T06:10:15;99528.22;;;13.16;80.11
63819;BME280;49970;54.976;73.248;2022-07-01T06:12:41;99526.84;;;13.22;79.85
63819;BME280;49970;54.976;73.248;2022-07-01T06:15:41;99521.00;;;13.09;79.93
63819;BME280;49970;54.976;73.248;2022-07-01T06:19:12;99531.19;;;13.23;80.28
63819;BME280;49970;54.976;73.248;2022-07-01T06:25:33;99523.81;;;13.44;79.98
63819;BME280;49970;54.976;73.248;2022-07-01T06:29:24;99530.63;;;13.57;80.22
63819;BME280;49970;54.976;73.248;2022-07-01T06:32:55;99523.84;;;13.72;80.00
63819;BME280;49970;54.976;73.248;2022-07-01T06:35:22;99525.31;;;13.84;79.73
63819;BME280;49970;54.976;73.248;2022-07-01T06:37:57;99527.09;;;13.93;79.52
63819;BME280;49970;54.976;73.248;2022-07-01T06:40:23;99520.31;;;13.99;78.76
63819;BME280;49970;54.976;73.248;2022-07-01T06:42:50;99524.44;;;14.11;79.08
63819;BME280;49970;54.976;73.248;2022-07-01T06:45:16;99529.47;;;14.14;78.53
63819;BME280;49970;54.976;73.248;2022-07-01T06:47:42;99517.66;;;14.17;78.72
63819;BME280;49970;54.976;73.248;2022-07-01T06:50:29;99523.75;;;14.27;78.47
63819;BME280;49970;54.976;73.248;2022-07-01T06:53:59;99538.28;;;14.33;78.55
63819;BME280;49970;54.976;73.248;2022-07-01T06:56:46;99529.72;;;14.39;77.95
63819;BME280;49970;54.976;73.248;2022-07-01T07:01:01;99543.25;;;14.45;77.70
63819;BME280;49970;54.976;73.248;2022-07-01T07:04:06;99542.97;;;14.49;78.07
63819;BME280;49970;54.976;73.248;2022-07-01T07:19:01;99546.53;;;14.57;78.72
63819;BME280;49970;54.976;73.248;2022-07-01T07:22:58;99549.28;;;14.65;78.32
63819;BME280;49970;54.976;73.248;2022-07-01T07:25:24;99549.50;;;14.72;78.18
63819;BME280;49970;54.976;73.248;2022-07-01T07:27:51;99542.19;;;14.74;78.25
63819;BME280;49970;54.976;73.248;2022-07-01T07:30:17;99542.47;;;14.71;78.08
63819;BME280;49970;54.976;73.248;2022-07-01T07:32:44;99542.34;;;14.73;78.14
63819;BME280;49970;54.976;73.248;2022-07-01T07:35:11;99522.03;;;14.72;78.17
63819;BME280;49970;54.976;73.248;2022-07-01T07:37:38;99543.09;;;14.83;78.09
63819;BME280;49970;54.976;73.248;2022-07-01T07:40:05;99548.59;;;14.81;78.16
63819;BME280;49970;54.976;73.248;2022-07-01T07:42:38;99541.25;;;14.83;78.64
63819;BME280;49970;54.976;73.248;2022-07-01T07:45:06;99547.41;;;14.84;77.87
63819;BME280;49970;54.976;73.248;2022-07-01T07:47:34;99549.41;;;14.82;78.11
63819;BME280;49970;54.976;73.248;2022-07-01T07:50:01;99560.91;;;14.82;78.18
63819;BME280;49970;54.976;73.248;2022-07-01T07:52:28;99569.38;;;14.78;78.18
63819;BME280;49970;54.976;73.248;2022-07-01T07:54:54;99573.63;;;14.70;78.79
63819;BME280;49970;54.976;73.248;2022-07-01T07:57:21;99571.81;;;14.71;78.64
63819;BME280;49970;54.976;73.248;2022-07-01T07:59:47;99564.13;;;14.68;78.95
63819;BME280;49970;54.976;73.248;2022-07-01T08:02:14;99561.47;;;14.68;79.20
63819;BME280;49970;54.976;73.248;2022-07-01T08:04:40;99565.50;;;14.72;79.03
63819;BME280;49970;54.976;73.248;2022-07-01T08:07:12;99570.38;;;14.77;79.10
63819;BME280;49970;54.976;73.248;2022-07-01T08:09:38;99567.53;;;14.78;79.07
63819;BME280;49970;54.976;73.248;2022-07-01T08:12:05;99572.56;;;14.81;78.57
63819;BME280;49970;54.976;73.248;2022-07-01T08:14:31;99566.47;;;14.89;78.96
63819;BME280;49970;54.976;73.248;2022-07-01T08:16:57;99573.38;;;15.00;79.06
63819;BME280;49970;54.976;73.248;2022-07-01T08:19:28;99566.72;;;15.04;77.99
63819;BME280;49970;54.976;73.248;2022-07-01T08:21:54;99563.00;;;15.14;78.54
63819;BME280;49970;54.976;73.248;2022-07-01T08:24:21;99574.50;;;15.15;78.09
63819;BME280;49970;54.976;73.248;2022-07-01T08:26:57;99568.63;;;15.11;77.80
63819;BME280;49970;54.976;73.248;2022-07-01T08:29:23;99567.97;;;15.09;78.31
63819;BME280;49970;54.976;73.248;2022-07-01T08:31:50;99570.75;;;15.08;78.44
63819;BME280;49970;54.976;73.248;2022-07-01T08:34:16;99564.78;;;15.06;77.93
63819;BME280;49970;54.976;73.248;2022-07-01T08:36:42;99575.44;;;15.06;78.50
63819;BME280;49970;54.976;73.248;2022-07-01T08:39:08;99566.44;;;15.07;78.25
63819;BME280;49970;54.976;73.248;2022-07-01T08:41:35;99574.59;;;15.05;78.19
63819;BME280;49970;54.976;73.248;2022-07-01T08:44:01;99575.78;;;15.11;78.29
63819;BME280;49970;54.976;73.248;2022-07-01T08:46:27;99573.13;;;15.11;78.38
63819;BME280;49970;54.976;73.248;2022-07-01T08:48:54;99572.00;;;15.13;78.37
63819;BME280;49970;54.976;73.248;2022-07-01T08:51:20;99553.31;;;15.13;78.98
63819;BME280;49970;54.976;73.248;2022-07-01T08:53:52;99559.38;;;15.24;78.64
63819;BME280;49970;54.976;73.248;2022-07-01T08:56:19;99559.44;;;15.32;78.89
63819;BME280;49970;54.976;73.248;2022-07-01T08:59:03;99568.34;;;15.49;78.94
63819;BME280;49970;54.976;73.248;2022-07-01T09:01:33;99573.25;;;15.61;79.24
63819;BME280;49970;54.976;73.248;2022-07-01T09:04:20;99570.50;;;15.71;78.37
63819;BME280;49970;54.976;73.248;2022-07-01T09:06:47;99572.00;;;15.74;77.97
63819;BME280;49970;54.976;73.248;2022-07-01T09:09:21;99559.97;;;15.69;77.42
63819;BME280;49970;54.976;73.248;2022-07-01T09:11:52;99556.09;;;15.64;78.09
63819;BME280;49970;54.976;73.248;2022-07-01T09:14:24;99561.03;;;15.77;78.26
63819;BME280;49970;54.976;73.248;2022-07-01T09:16:52;99562.19;;;15.82;78.04
63819;BME280;49970;54.976;73.248;2022-07-01T09:19:22;99553.84;;;15.77;77.78
63819;BME280;49970;54.976;73.248;2022-07-01T09:21:54;99567.25;;;15.93;77.77
63819;BME280;49970;54.976;73.248;2022-07-01T09:24:31;99555.91;;;16.00;77.61
63819;BME280;49970;54.976;73.248;2022-07-01T09:27:06;99560.13;;;16.10;77.65
63819;BME280;49970;54.976;73.248;2022-07-01T09:29:38;99561.31;;;16.16;77.51
63819;BME280;49970;54.976;73.248;2022-07-01T09:32:08;99558.66;;;16.24;77.40
63819;BME280;49970;54.976;73.248;2022-07-01T09:34:43;99565.53;;;16.35;76.78
63819;BME280;49970;54.976;73.248;2022-07-01T09:37:18;99557.69;;;16.41;76.71
63819;BME280;49970;54.976;73.248;2022-07-01T09:39:55;99568.56;;;16.48;76.47
63819;BME280;49970;54.976;73.248;2022-07-01T09:42:24;99572.56;;;16.52;76.90
63819;BME280;49970;54.976;73.248;2022-07-01T09:44:55;99569.56;;;16.55;76.65
63819;BME280;49970;54.976;73.248;2022-07-01T09:47:26;99581.44;;;16.61;76.38
63819;BME280;49970;54.976;73.248;2022-07-01T09:49:54;99582.78;;;16.65;76.15
63819;BME280;49970;54.976;73.248;2022-07-01T09:52:22;99580.75;;;16.59;76.29
63819;BME280;49970;54.976;73.248;2022-07-01T09:54:49;99585.59;;;16.55;76.54
63819;BME280;49970;54.976;73.248;2022-07-01T09:57:17;99586.28;;;16.57;76.95
63819;BME280;49970;54.976;73.248;2022-07-01T09:59:43;99583.44;;;16.59;76.85
63819;BME280;49970;54.976;73.248;2022-07-01T10:02:11;99586.09;;;16.59;77.11
63819;BME280;49970;54.976;73.248;2022-07-01T10:04:48;99601.50;;;16.57;76.84
63819;BME280;49970;54.976;73.248;2022-07-01T10:10:41;99588.75;;;16.51;77.26
63819;BME280;49970;54.976;73.248;2022-07-01T10:13:13;99590.09;;;16.55;77.15
63819;BME280;49970;54.976;73.248;2022-07-01T10:15:43;99591.81;;;16.56;77.55
63819;BME280;49970;54.976;73.248;2022-07-01T10:18:22;99593.47;;;16.57;77.18
63819;BME280;49970;54.976;73.248;2022-07-01T10:20:58;99598.63;;;16.58;77.24
63819;BME280;49970;54.976;73.248;2022-07-01T10:23:30;99597.66;;;16.51;77.35
63819;BME280;49970;54.976;73.248;2022-07-01T10:26:04;99597.47;;;16.53;77.23
63819;BME280;49970;54.976;73.248;2022-07-01T10:28:42;99605.00;;;16.57;77.91
63819;BME280;49970;54.976;73.248;2022-07-01T10:31:10;99612.31;;;16.55;77.01
63819;BME280;49970;54.976;73.248;2022-07-01T10:36:27;99614.00;;;16.48;77.24
63819;BME280;49970;54.976;73.248;2022-07-01T10:44:13;99614.34;;;16.53;77.77
63819;BME280;49970;54.976;73.248;2022-07-01T10:46:51;99611.34;;;16.48;77.06
63819;BME280;49970;54.976;73.248;2022-07-01T10:52:13;99611.47;;;16.47;77.40
63819;BME280;49970;54.976;73.248;2022-07-01T10:59:48;99612.50;;;16.54;77.69
63819;BME280;49970;54.976;73.248;2022-07-01T11:02:27;99619.38;;;16.56;77.84
63819;BME280;49970;54.976;73.248;2022-07-01T11:05:03;99621.03;;;16.57;77.78
63819;BME280;49970;54.976;73.248;2022-07-01T11:07:32;99611.97;;;16.42;77.80
63819;BME280;49970;54.976;73.248;2022-07-01T11:10:00;99632.53;;;16.41;77.37
63819;BME280;49970;54.976;73.248;2022-07-01T11:12:28;99620.81;;;16.26;76.99
63819;BME280;49970;54.976;73.248;2022-07-01T11:14:56;99629.47;;;16.28;77.28
63819;BME280;49970;54.976;73.248;2022-07-01T11:17:25;99626.59;;;16.22;76.91
63819;BME280;49970;54.976;73.248;2022-07-01T11:19:54;99627.78;;;16.19;77.42
63819;BME280;49970;54.976;73.248;2022-07-01T11:22:24;99621.44;;;16.20;77.91
63819;BME280;49970;54.976;73.248;2022-07-01T11:25:03;99632.97;;;16.21;78.05
63819;BME280;49970;54.976;73.248;2022-07-01T11:27:45;99628.94;;;16.16;77.88
63819;BME280;49970;54.976;73.248;2022-07-01T11:30:12;99633.44;;;16.16;77.09
63819;BME280;49970;54.976;73.248;2022-07-01T11:32:48;99634.59;;;16.13;77.52
63819;BME280;49970;54.976;73.248;2022-07-01T11:38:09;99630.78;;;16.16;77.65
63819;BME280;49970;54.976;73.248;2022-07-01T11:40:56;99636.94;;;16.16;77.43
63819;BME280;49970;54.976;73.248;2022-07-01T11:43:28;99632.13;;;16.20;78.10
63819;BME280;49970;54.976;73.248;2022-07-01T11:45:57;99638.50;;;16.27;77.87
63819;BME280;49970;54.976;73.248;2022-07-01T11:48:32;99635.97;;;16.26;77.59
63819;BME280;49970;54.976;73.248;2022-07-01T11:51:22;99636.50;;;16.29;77.36
63819;BME280;49970;54.976;73.248;2022-07-01T11:53:54;99641.34;;;16.34;77.33
63819;BME280;49970;54.976;73.248;2022-07-01T11:56:29;99645.19;;;16.31;76.81
63819;BME280;49970;54.976;73.248;2022-07-01T11:59:01;99639.50;;;16.26;77.63
63819;BME280;49970;54.976;73.248;2022-07-01T12:04:00;99646.84;;;16.24;77.82
63819;BME280;49970;54.976;73.248;2022-07-01T12:06:32;99648.84;;;16.22;77.73
63819;BME280;49970;54.976;73.248;2022-07-01T12:08:59;99649.81;;;16.21;78.34
63819;BME280;49970;54.976;73.248;2022-07-01T12:11:27;99642.63;;;16.22;77.82
63819;BME280;49970;54.976;73.248;2022-07-01T12:13:58;99642.59;;;16.13;77.85
63819;BME280;49970;54.976;73.248;2022-07-01T12:16:24;99652.84;;;16.18;77.79
63819;BME280;49970;54.976;73.248;2022-07-01T12:18:59;99653.28;;;16.13;77.67
63819;BME280;49970;54.976;73.248;2022-07-01T12:21:28;99638.06;;;15.98;77.90
63819;BME280;49970;54.976;73.248;2022-07-01T12:24:07;99658.63;;;16.05;77.84
63819;BME280;49970;54.976;73.248;2022-07-01T12:32:13;99663.56;;;15.92;78.05
63819;BME280;49970;54.976;73.248;2022-07-01T12:34:59;99647.44;;;15.76;78.25
63819;BME280;49970;54.976;73.248;2022-07-01T12:37:28;99664.16;;;15.78;78.20
63819;BME280;49970;54.976;73.248;2022-07-01T12:40:00;99675.66;;;15.78;78.59
63819;BME280;49970;54.976;73.248;2022-07-01T12:42:31;99681.19;;;15.77;78.59
63819;BME280;49970;54.976;73.248;2022-07-01T12:45:08;99682.00;;;15.77;78.98
63819;BME280;49970;54.976;73.248;2022-07-01T12:47:47;99683.03;;;15.76;78.56
63819;BME280;49970;54.976;73.248;2022-07-01T12:52:58;99687.31;;;15.69;78.94
63819;BME280;49970;54.976;73.248;2022-07-01T12:55:24;99685.09;;;15.64;78.91
63819;BME280;49970;54.976;73.248;2022-07-01T12:57:55;99691.94;;;15.67;79.62
63819;BME280;49970;54.976;73.248;2022-07-01T13:00:23;99686.78;;;15.65;79.54
63819;BME280;49970;54.976;73.248;2022-07-01T13:03:01;99687.47;;;15.67;79.29
63819;BME280;49970;54.976;73.248;2022-07-01T13:05:47;99683.94;;;15.67;79.13
63819;BME280;49970;54.976;73.248;2022-07-01T13:09:08;99684.53;;;15.61;78.99
63819;BME280;49970;54.976;73.248;2022-07-01T13:11:34;99690.97;;;15.50;79.03
63819;BME280;49970;54.976;73.248;2022-07-01T13:14:06;99699.31;;;15.47;79.34
63819;BME280;49970;54.976;73.248;2022-07-01T13:16:32;99694.28;;;15.44;79.58
63819;BME280;49970;54.976;73.248;2022-07-01T13:19:04;99688.03;;;15.35;79.56
63819;BME280;49970;54.976;73.248;2022-07-01T13:21:30;99697.53;;;15.38;79.49
63819;BME280;49970;54.976;73.248;2022-07-01T13:23:56;99695.22;;;15.35;79.53
63819;BME280;49970;54.976;73.248;2022-07-01T13:26:23;99706.00;;;15.33;79.88
63819;BME280;49970;54.976;73.248;2022-07-01T13:28:49;99709.38;;;15.35;79.91
63819;BME280;49970;54.976;73.248;2022-07-01T13:31:21;99714.03;;;15.33;79.79
63819;BME280;49970;54.976;73.248;2022-07-01T13:33:47;99713.19;;;15.33;79.68
63819;BME280;49970;54.976;73.248;2022-07-01T13:36:19;99701.31;;;15.27;79.85
63819;BME280;49970;54.976;73.248;2022-07-01T13:38:45;99710.81;;;15.30;79.50
63819;BME280;49970;54.976;73.248;2022-07-01T13:41:22;99714.34;;;15.30;80.04
63819;BME280;49970;54.976;73.248;2022-07-01T13:43:49;99701.84;;;15.31;80.03
63819;BME280;49970;54.976;73.248;2022-07-01T13:46:25;99712.72;;;15.37;80.03
63819;BME280;49970;54.976;73.248;2022-07-01T13:48:52;99719.75;;;15.38;79.81
63819;BME280;49970;54.976;73.248;2022-07-01T13:51:18;99719.88;;;15.37;79.90
63819;BME280;49970;54.976;73.248;2022-07-01T13:53:45;99716.69;;;15.33;79.78
63819;BME280;49970;54.976;73.248;2022-07-01T13:56:11;99722.03;;;15.33;79.83
63819;BME280;49970;54.976;73.248;2022-07-01T13:58:37;99712.72;;;15.37;79.94
63819;BME280;49970;54.976;73.248;2022-07-01T14:01:03;99716.75;;;15.41;79.92
63819;BME280;49970;54.976;73.248;2022-07-01T14:03:30;99712.25;;;15.42;79.62
63819;BME280;49970;54.976;73.248;2022-07-01T14:06:06;99714.63;;;15.45;79.55
63819;BME280;49970;54.976;73.248;2022-07-01T14:08:33;99720.66;;;15.47;79.48
63819;BME280;49970;54.976;73.248;2022-07-01T14:11:09;99710.81;;;15.48;80.00
63819;BME280;49970;54.976;73.248;2022-07-01T14:13:35;99712.47;;;15.49;79.50
63819;BME280;49970;54.976;73.248;2022-07-01T14:16:13;99712.19;;;15.52;79.53
63819;BME280;49970;54.976;73.248;2022-07-01T14:18:39;99725.00;;;15.48;79.66
63819;BME280;49970;54.976;73.248;2022-07-01T14:21:11;99720.25;;;15.42;79.48
63819;BME280;49970;54.976;73.248;2022-07-01T14:23:43;99717.75;;;15.40;79.58
63819;BME280;49970;54.976;73.248;2022-07-01T14:26:09;99719.34;;;15.33;79.68